UNT weather

Unst Airport
Shetland Islands, Scotland, United Kingdom

Public forecast

Using degrees Celsius for public forecast. Weather courtesy of forecast.io.

Closest aviation weather report (METAR) to Unst Airport

Closest report is Scatsta Airport, 22.9 nm (42.5 km) SW. Retrieved 2019/12/10 10:20 UTC (22 minutes ago):

EGPM 101020Z 18035G46KT 7000 RA SCT013 BKN025 08/06 Q0981 TEMPO -RA

Closest aviation forecast (TAF) to Unst Airport

Forecast is more than 12 hours old.

Closest forecast is Scatsta Airport, 22.9 nm (42.5 km) SW. Retrieved 2013/04/29 03:39 UTC (7 years ago):

TAF TAF EGPM 290337Z 2903/2915 22005KT 9999 SCT030 PROB30 TEMPO 2903/2906 7000 SHRAGS BECMG 2906/2909 32015KT PROB40 TEMPO 2906/2915 6000 SHRA SHGS BKN012CB